Time;durP1;ratioP1;P1;durP2;ratioP2;P2;SDS_P1;SDS_P2;PMS_P1;PMS_P2;Temp;Humidity;BMP_temperature;BMP_pressure;BME280_temperature;BME280_humidity;BME280_pressure;Samples;Min_cycle;Max_cycle;Signal;HPM_P1;HPM_P2
2023/07/22 00:00:45;;;;;;;4.63;4.20;;;23.10;50.40;;;;;;5104907;28;20233;-91
2023/07/22 00:03:11;;;;;;;4.63;4.23;;;23.10;50.40;;;;;;5108081;28;20222;-91
2023/07/22 00:05:37;;;;;;;4.47;4.07;;;23.00;50.50;;;;;;5101573;28;20182;-91
2023/07/22 00:08:03;;;;;;;5.00;4.53;;;23.00;50.50;;;;;;5103757;28;20644;-91
2023/07/22 00:10:29;;;;;;;5.13;4.60;;;23.00;50.50;;;;;;5101602;28;20238;-91
2023/07/22 00:12:54;;;;;;;4.40;4.00;;;23.00;50.50;;;;;;5101064;28;20520;-91
2023/07/22 00:15:22;;;;;;;4.90;4.50;;;23.00;50.50;;;;;;5103918;28;20182;-91
2023/07/22 00:17:48;;;;;;;4.70;4.30;;;23.00;50.60;;;;;;5100843;28;20277;-91
2023/07/22 00:20:16;;;;;;;4.30;3.90;;;23.00;50.60;;;;;;5101575;28;20547;-91
2023/07/22 00:22:42;;;;;;;4.43;4.03;;;23.00;50.60;;;;;;5104526;28;20270;-91
2023/07/22 00:25:10;;;;;;;5.20;4.60;;;22.90;50.60;;;;;;5102802;28;20187;-91
2023/07/22 00:27:41;;;;;;;4.97;4.47;;;22.90;51.00;;;;;;5102989;28;20174;-91
2023/07/22 00:30:08;;;;;;;5.57;4.80;;;22.90;50.60;;;;;;5103858;28;20579;-91
2023/07/22 00:32:36;;;;;;;4.83;4.33;;;22.90;50.60;;;;;;5100347;28;20198;-91
2023/07/22 00:35:04;;;;;;;4.57;4.17;;;22.90;50.70;;;;;;5098458;28;20185;-91
2023/07/22 00:37:29;;;;;;;4.40;4.00;;;22.80;50.60;;;;;;5099421;28;20201;-91
2023/07/22 00:39:55;;;;;;;4.70;4.23;;;22.80;50.60;;;;;;5104250;28;20499;-91
2023/07/22 00:42:23;;;;;;;5.47;4.13;;;22.80;50.60;;;;;;5096688;28;20190;-91
2023/07/22 00:44:49;;;;;;;4.63;4.23;;;22.80;50.50;;;;;;5103031;28;20177;-91
2023/07/22 00:47:16;;;;;;;4.50;4.10;;;22.80;50.60;;;;;;5101682;28;20544;-90
2023/07/22 00:49:42;;;;;;;5.00;4.50;;;22.70;50.70;;;;;;5104909;28;20255;-91
2023/07/22 00:52:08;;;;;;;4.57;4.17;;;22.70;50.70;;;;;;5102938;28;20426;-91
2023/07/22 00:54:34;;;;;;;4.63;4.23;;;22.70;50.80;;;;;;5106810;28;20560;-91
2023/07/22 00:56:59;;;;;;;4.90;4.40;;;22.70;50.80;;;;;;5105048;28;20599;-91
2023/07/22 00:59:26;;;;;;;4.53;4.13;;;22.70;50.80;;;;;;5102257;28;20294;-91
2023/07/22 01:01:52;;;;;;;4.77;4.37;;;22.60;50.80;;;;;;5103992;28;20181;-90
2023/07/22 01:04:22;;;;;;;4.77;4.30;;;22.60;50.80;;;;;;5101508;28;20453;-91
2023/07/22 01:06:48;;;;;;;4.77;4.27;;;22.70;50.90;;;;;;5102221;28;20563;-91
2023/07/22 01:09:14;;;;;;;6.03;4.30;;;22.70;50.80;;;;;;5103167;28;20182;-91
2023/07/22 01:11:40;;;;;;;5.03;4.53;;;22.60;50.80;;;;;;5102283;28;20336;-91
2023/07/22 01:14:07;;;;;;;4.73;4.33;;;22.60;50.90;;;;;;5101366;28;20190;-91
2023/07/22 01:16:34;;;;;;;4.50;4.07;;;22.60;50.90;;;;;;5104258;28;20257;-91
2023/07/22 01:19:00;;;;;;;4.43;4.03;;;22.60;50.90;;;;;;5100418;28;20246;-90
2023/07/22 01:21:26;;;;;;;5.43;4.30;;;22.60;50.90;;;;;;5101490;28;20179;-91
2023/07/22 01:23:52;;;;;;;4.53;4.03;;;22.70;50.80;;;;;;5101147;28;20438;-91
2023/07/22 01:26:18;;;;;;;4.10;3.80;;;22.60;50.80;;;;;;5105440;28;20200;-91
2023/07/22 01:28:44;;;;;;;4.70;4.20;;;22.70;50.70;;;;;;5105996;28;20443;-91
2023/07/22 01:31:10;;;;;;;4.40;4.00;;;22.60;50.70;;;;;;5100753;28;20676;-91
2023/07/22 01:33:37;;;;;;;5.47;4.17;;;22.60;50.70;;;;;;5104444;28;20198;-91
2023/07/22 01:36:03;;;;;;;4.47;3.90;;;22.60;50.60;;;;;;5101288;28;20504;-91
2023/07/22 01:38:31;;;;;;;5.00;4.27;;;22.60;50.60;;;;;;5103417;28;20208;-90
2023/07/22 01:40:57;;;;;;;4.97;4.47;;;22.60;50.70;;;;;;5101105;28;20288;-90
2023/07/22 01:43:22;;;;;;;4.63;4.23;;;22.60;50.80;;;;;;5104573;28;20317;-90
2023/07/22 01:45:48;;;;;;;4.77;4.00;;;22.50;50.80;;;;;;5103530;28;20174;-90
2023/07/22 01:48:14;;;;;;;4.40;4.00;;;22.50;50.80;;;;;;5100981;28;20556;-91
2023/07/22 01:50:40;;;;;;;4.97;4.23;;;22.50;50.90;;;;;;5102641;28;20210;-91
2023/07/22 01:53:06;;;;;;;4.30;3.93;;;22.50;50.90;;;;;;5103626;28;20681;-91
2023/07/22 01:55:35;;;;;;;4.67;4.17;;;22.50;50.90;;;;;;5103086;28;20196;-91
2023/07/22 01:58:01;;;;;;;4.60;4.17;;;22.50;50.90;;;;;;5104122;28;20212;-90
2023/07/22 02:00:30;;;;;;;4.00;3.60;;;22.50;51.00;;;;;;5101589;28;20258;-90
2023/07/22 02:02:56;;;;;;;4.40;4.00;;;22.50;51.00;;;;;;5103202;28;20225;-90
2023/07/22 02:05:22;;;;;;;4.60;4.20;;;22.50;51.00;;;;;;5102796;28;20277;-90
2023/07/22 02:07:48;;;;;;;4.80;4.13;;;22.40;51.00;;;;;;5111880;28;20224;-91
2023/07/22 02:10:13;;;;;;;4.57;3.90;;;22.40;51.00;;;;;;5102063;28;20212;-91
2023/07/22 02:12:39;;;;;;;5.07;3.97;;;22.40;51.00;;;;;;5103741;28;20517;-90
2023/07/22 02:15:05;;;;;;;4.20;3.90;;;22.40;51.20;;;;;;5100065;28;20221;-90
2023/07/22 02:17:30;;;;;;;4.50;4.10;;;22.40;51.00;;;;;;5102487;28;20180;-91
2023/07/22 02:19:56;;;;;;;5.30;4.00;;;22.40;51.00;;;;;;5099184;28;20182;-90
2023/07/22 02:22:22;;;;;;;4.80;4.23;;;22.40;51.00;;;;;;5103012;28;20192;-90
2023/07/22 02:24:48;;;;;;;4.27;3.87;;;22.40;51.00;;;;;;5103914;28;20753;-90
2023/07/22 02:27:14;;;;;;;5.43;4.27;;;22.40;51.10;;;;;;5102912;28;20192;-90
2023/07/22 02:29:42;;;;;;;4.23;3.80;;;22.40;51.10;;;;;;5107603;28;20178;-90
2023/07/22 02:32:09;;;;;;;4.63;3.80;;;22.40;51.10;;;;;;5100500;28;20189;-90
2023/07/22 02:34:34;;;;;;;4.30;3.90;;;22.40;51.10;;;;;;5100724;28;20197;-90
2023/07/22 02:37:00;;;;;;;4.90;4.07;;;22.40;51.10;;;;;;5103163;28;20425;-90
2023/07/22 02:39:25;;;;;;;4.30;3.90;;;22.40;51.10;;;;;;5102064;28;20186;-91
2023/07/22 02:41:51;;;;;;;4.27;3.87;;;22.40;51.10;;;;;;5103837;28;20254;-90
2023/07/22 02:44:17;;;;;;;4.70;4.30;;;22.40;51.10;;;;;;5102144;28;20625;-90
2023/07/22 02:46:43;;;;;;;4.27;3.87;;;22.40;51.10;;;;;;5105651;28;20534;-90
2023/07/22 02:49:08;;;;;;;4.27;3.90;;;22.40;51.20;;;;;;5103863;28;20225;-90
2023/07/22 02:51:34;;;;;;;4.53;4.00;;;22.40;51.20;;;;;;5103301;28;20428;-90
2023/07/22 02:54:00;;;;;;;5.67;4.47;;;22.40;51.20;;;;;;5103901;28;20213;-91
2023/07/22 02:56:26;;;;;;;4.27;3.87;;;22.40;51.10;;;;;;5102204;28;20174;-91
2023/07/22 02:58:52;;;;;;;4.70;3.90;;;22.30;51.20;;;;;;5103234;28;20197;-91
2023/07/22 03:01:18;;;;;;;4.70;4.20;;;22.30;51.10;;;;;;5104984;28;20570;-91
2023/07/22 03:03:45;;;;;;;4.30;3.90;;;22.30;51.10;;;;;;5104811;28;20210;-90
2023/07/22 03:06:11;;;;;;;4.73;3.67;;;22.30;51.20;;;;;;5101692;28;20179;-91
2023/07/22 03:08:36;;;;;;;4.40;4.00;;;22.30;51.20;;;;;;5100347;28;20185;-90
2023/07/22 03:11:03;;;;;;;6.40;4.47;;;22.30;51.20;;;;;;5100531;28;20190;-90
2023/07/22 03:13:29;;;;;;;4.50;4.10;;;22.30;51.20;;;;;;5102654;28;20607;-91
2023/07/22 03:15:56;;;;;;;4.30;3.90;;;22.30;51.20;;;;;;5104483;28;20331;-90
2023/07/22 03:18:24;;;;;;;4.30;3.90;;;22.30;51.20;;;;;;5110668;28;20193;-91
2023/07/22 03:20:50;;;;;;;4.40;4.00;;;22.30;51.20;;;;;;5103194;28;20182;-90
2023/07/22 03:23:15;;;;;;;5.63;4.33;;;22.20;51.20;;;;;;5107757;28;20220;-91
2023/07/22 03:25:41;;;;;;;4.43;4.03;;;22.20;51.30;;;;;;5104228;28;20410;-90
2023/07/22 03:28:07;;;;;;;4.87;3.77;;;22.20;51.30;;;;;;5107475;28;20181;-91
2023/07/22 03:30:33;;;;;;;5.37;4.10;;;22.30;51.30;;;;;;5103317;28;20182;-91
2023/07/22 03:33:00;;;;;;;4.40;4.00;;;22.30;51.20;;;;;;5109776;28;20581;-91
2023/07/22 03:35:26;;;;;;;4.93;4.33;;;22.20;51.20;;;;;;5103302;28;20589;-92
2023/07/22 03:37:54;;;;;;;4.23;3.83;;;22.20;51.20;;;;;;5104546;28;20228;-91
2023/07/22 03:40:20;;;;;;;4.30;3.90;;;22.20;51.20;;;;;;5102771;28;20338;-91
2023/07/22 03:42:48;;;;;;;4.40;4.00;;;22.20;51.30;;;;;;5103961;28;20220;-91
2023/07/22 03:45:17;;;;;;;5.53;4.20;;;22.20;51.20;;;;;;5102976;28;20276;-91
2023/07/22 03:47:49;;;;;;;5.20;4.60;;;22.10;51.10;;;;;;5104363;28;20471;-91
2023/07/22 03:50:15;;;;;;;6.03;4.33;;;22.00;51.30;;;;;;5103431;28;20213;-91
2023/07/22 03:52:41;;;;;;;4.93;4.27;;;21.90;51.40;;;;;;5106917;28;20209;-91
2023/07/22 03:55:07;;;;;;;5.10;4.37;;;22.00;51.30;;;;;;5103589;28;20272;-91
2023/07/22 03:57:36;;;;;;;4.97;4.50;;;21.70;51.70;;;;;;5106397;28;20243;-91
2023/07/22 04:00:03;;;;;;;4.70;4.30;;;21.50;52.00;;;;;;5104644;28;20182;-92
2023/07/22 04:02:29;;;;;;;4.63;4.20;;;21.30;52.20;;;;;;5104052;28;20167;-91
2023/07/22 04:04:57;;;;;;;6.20;4.30;;;21.20;52.50;;;;;;5106955;28;20185;-91
2023/07/22 04:07:24;;;;;;;5.37;4.23;;;21.50;52.20;;;;;;5107439;28;20167;-91
2023/07/22 04:09:50;;;;;;;6.60;4.20;;;21.40;52.10;;;;;;5102285;28;20625;-91
2023/07/22 04:12:16;;;;;;;4.93;4.30;;;21.50;52.00;;;;;;5105993;28;20186;-91
2023/07/22 04:14:41;;;;;;;5.83;4.40;;;21.60;51.90;;;;;;5102618;28;20187;-90
2023/07/22 04:17:07;;;;;;;5.17;4.67;;;21.80;51.70;;;;;;5103927;28;20210;-90
2023/07/22 04:19:33;;;;;;;5.10;4.60;;;21.80;51.40;;;;;;5105451;28;20185;-90
2023/07/22 04:22:03;;;;;;;4.83;4.43;;;21.80;51.40;;;;;;5104176;28;20200;-90
2023/07/22 04:24:32;;;;;;;4.33;3.93;;;21.80;51.50;;;;;;5104958;28;20201;-91
2023/07/22 04:26:58;;;;;;;6.13;4.30;;;21.80;51.50;;;;;;5103944;28;20586;-90
2023/07/22 04:29:24;;;;;;;6.27;4.57;;;21.80;51.40;;;;;;5103927;28;20183;-90
2023/07/22 04:31:50;;;;;;;5.20;4.50;;;21.90;51.40;;;;;;5101294;28;20175;-90
2023/07/22 04:34:15;;;;;;;5.87;4.37;;;22.00;51.30;;;;;;5104433;28;20743;-90
2023/07/22 04:36:43;;;;;;;4.50;4.00;;;22.00;51.20;;;;;;5105273;28;20176;-90
2023/07/22 04:39:09;;;;;;;5.80;3.83;;;22.00;51.20;;;;;;5105565;28;20190;-90
2023/07/22 04:41:35;;;;;;;4.67;4.27;;;22.00;51.30;;;;;;5104893;28;20429;-89
2023/07/22 04:44:03;;;;;;;5.57;4.00;;;22.00;51.20;;;;;;5101559;28;20214;-90
2023/07/22 04:46:29;;;;;;;4.33;3.93;;;22.00;51.20;;;;;;5102661;28;20286;-90
2023/07/22 04:48:56;;;;;;;4.30;3.90;;;22.10;51.20;;;;;;5105774;28;20193;-90
2023/07/22 04:51:22;;;;;;;4.33;3.93;;;22.10;51.20;;;;;;5102392;28;20590;-90
2023/07/22 04:53:50;;;;;;;4.50;4.10;;;22.10;51.20;;;;;;5105253;28;20273;-90
2023/07/22 04:56:16;;;;;;;4.53;4.13;;;22.10;51.10;;;;;;5105340;28;20436;-90
2023/07/22 04:58:41;;;;;;;4.40;4.00;;;22.10;51.10;;;;;;5100947;28;20193;-90
2023/07/22 05:01:08;;;;;;;4.67;4.00;;;22.10;51.10;;;;;;5102403;28;20586;-90
2023/07/22 05:03:34;;;;;;;4.10;3.70;;;22.10;51.10;;;;;;5100644;28;20583;-90
2023/07/22 05:05:59;;;;;;;4.33;3.93;;;22.00;50.70;;;;;;5101081;28;20177;-90
2023/07/22 05:08:25;;;;;;;4.60;3.80;;;22.00;51.10;;;;;;5100813;28;20286;-90
2023/07/22 05:10:52;;;;;;;4.60;3.60;;;21.90;51.20;;;;;;5099966;28;20543;-90
2023/07/22 05:13:17;;;;;;;4.10;3.70;;;22.00;51.20;;;;;;5103523;28;20175;-90
2023/07/22 05:15:43;;;;;;;4.10;3.70;;;22.00;51.20;;;;;;5102771;28;20179;-90
2023/07/22 05:18:08;;;;;;;4.03;3.60;;;22.10;51.50;;;;;;5107502;28;20242;-90
2023/07/22 05:20:35;;;;;;;3.60;3.30;;;22.10;51.20;;;;;;5104199;28;20603;-90
2023/07/22 05:23:01;;;;;;;4.33;3.93;;;22.10;51.10;;;;;;5103600;28;20206;-90
2023/07/22 05:25:26;;;;;;;3.73;3.30;;;22.00;51.00;;;;;;5100747;28;20208;-90
2023/07/22 05:27:54;;;;;;;4.73;4.20;;;22.10;51.50;;;;;;5110125;28;20193;-90
2023/07/22 05:30:20;;;;;;;4.57;3.67;;;22.10;51.00;;;;;;5100708;28;20189;-90
2023/07/22 05:32:46;;;;;;;4.23;3.83;;;22.10;51.10;;;;;;5102423;28;20425;-91
2023/07/22 05:35:12;;;;;;;4.07;3.67;;;22.10;51.00;;;;;;5098091;28;20193;-90
2023/07/22 05:37:37;;;;;;;4.20;3.40;;;22.20;51.10;;;;;;5097009;28;20177;-90
2023/07/22 05:40:10;;;;;;;5.43;3.70;;;22.20;51.00;;;;;;5101857;28;20268;-90
2023/07/22 05:42:39;;;;;;;3.80;3.40;;;22.20;51.10;;;;;;5097257;28;20500;-90
2023/07/22 05:45:04;;;;;;;3.77;3.47;;;22.20;51.00;;;;;;5101489;28;20186;-90
2023/07/22 05:47:30;;;;;;;3.83;3.53;;;22.20;51.00;;;;;;5099863;28;20182;-90
2023/07/22 05:49:58;;;;;;;4.00;3.50;;;22.30;51.10;;;;;;5096529;28;20181;-90
2023/07/22 05:52:24;;;;;;;4.30;3.50;;;22.30;51.10;;;;;;5097786;28;20486;-91
2023/07/22 05:54:50;;;;;;;3.80;3.50;;;22.30;51.00;;;;;;5098178;28;20174;-90
2023/07/22 05:57:15;;;;;;;4.10;3.70;;;22.40;51.10;;;;;;5099699;28;20252;-90
2023/07/22 05:59:41;;;;;;;4.40;3.77;;;22.40;50.90;;;;;;5096519;28;20197;-90
2023/07/22 06:02:08;;;;;;;5.00;3.97;;;22.40;50.90;;;;;;5099238;28;20238;-90
2023/07/22 06:04:38;;;;;;;5.50;4.10;;;22.50;50.90;;;;;;5099371;28;20205;-90
2023/07/22 06:07:04;;;;;;;4.27;3.43;;;22.50;50.80;;;;;;5102612;28;20200;-90
2023/07/22 06:09:30;;;;;;;4.00;3.60;;;22.60;50.90;;;;;;5099973;28;20179;-90
2023/07/22 06:11:55;;;;;;;3.87;3.50;;;22.60;50.90;;;;;;5098812;28;20264;-90
2023/07/22 06:14:21;;;;;;;3.77;3.47;;;22.60;50.70;;;;;;5101606;28;20182;-90
2023/07/22 06:16:47;;;;;;;3.80;3.50;;;22.60;50.80;;;;;;5099058;28;20187;-90
2023/07/22 06:19:12;;;;;;;6.53;4.60;;;22.70;50.90;;;;;;5098426;28;20190;-90
2023/07/22 06:21:38;;;;;;;3.90;3.50;;;22.70;50.80;;;;;;5103483;28;20259;-90
2023/07/22 06:24:04;;;;;;;4.17;3.77;;;22.70;50.90;;;;;;5098309;28;20214;-89
2023/07/22 06:26:34;;;;;;;3.83;3.53;;;22.70;50.80;;;;;;5101129;28;20190;-89
2023/07/22 06:29:00;;;;;;;3.97;3.40;;;22.80;50.80;;;;;;5102418;28;20178;-90
2023/07/22 06:31:30;;;;;;;3.63;3.30;;;22.80;50.70;;;;;;5098456;28;20266;-90
2023/07/22 06:34:01;;;;;;;3.70;3.40;;;22.80;50.70;;;;;;5097416;28;20320;-90
2023/07/22 06:36:28;;;;;;;4.00;3.20;;;22.90;50.60;;;;;;5098416;28;20311;-90
2023/07/22 06:38:54;;;;;;;3.50;3.20;;;22.90;50.60;;;;;;5098154;28;20179;-90
2023/07/22 06:41:20;;;;;;;3.77;3.47;;;23.00;50.70;;;;;;5096606;28;20182;-90
2023/07/22 06:43:48;;;;;;;3.70;3.30;;;23.10;50.60;;;;;;5100108;28;20491;-91
2023/07/22 06:46:14;;;;;;;4.77;3.33;;;23.10;50.40;;;;;;5101129;28;20179;-90
2023/07/22 06:48:40;;;;;;;3.57;3.27;;;23.20;50.50;;;;;;5100786;28;20182;-90
2023/07/22 06:51:07;;;;;;;3.80;3.30;;;23.20;50.50;;;;;;5101383;28;20215;-90
2023/07/22 06:53:33;;;;;;;3.73;3.33;;;23.30;50.50;;;;;;5103672;28;20182;-90
2023/07/22 06:55:59;;;;;;;3.53;3.20;;;23.40;50.50;;;;;;5099250;28;20260;-90
2023/07/22 06:58:27;;;;;;;3.83;3.33;;;23.40;50.40;;;;;;5103639;28;20787;-90
2023/07/22 07:00:53;;;;;;;3.10;2.80;;;23.40;50.30;;;;;;5099711;28;20579;-90
2023/07/22 07:03:21;;;;;;;3.60;3.30;;;23.50;50.40;;;;;;5100959;28;20438;-90
2023/07/22 07:05:56;;;;;;;3.83;3.53;;;23.50;50.40;;;;;;5103894;28;20530;-91
2023/07/22 07:08:25;;;;;;;3.30;3.00;;;23.60;50.10;;;;;;5102143;28;20532;-90
2023/07/22 07:10:51;;;;;;;3.57;3.27;;;23.70;50.20;;;;;;5101479;28;20210;-90
2023/07/22 07:13:17;;;;;;;4.63;3.60;;;23.70;50.00;;;;;;5103366;28;20182;-90
2023/07/22 07:15:48;;;;;;;3.43;3.13;;;23.80;50.10;;;;;;5101074;28;20191;-90
2023/07/22 07:18:13;;;;;;;3.30;3.00;;;23.80;50.00;;;;;;5098577;28;20222;-90
2023/07/22 07:20:39;;;;;;;3.97;3.40;;;23.80;50.00;;;;;;5100995;28;20266;-90
2023/07/22 07:23:05;;;;;;;3.10;2.80;;;23.90;50.00;;;;;;5099899;28;20233;-90
2023/07/22 07:25:30;;;;;;;3.33;3.03;;;23.90;50.00;;;;;;5102793;28;20223;-90
2023/07/22 07:27:56;;;;;;;3.57;3.27;;;24.00;50.10;;;;;;5098187;28;20179;-90
2023/07/22 07:30:21;;;;;;;3.60;3.30;;;24.00;49.90;;;;;;5103864;28;20244;-90
2023/07/22 07:32:47;;;;;;;3.93;3.57;;;24.00;49.80;;;;;;5099425;28;20320;-90
2023/07/22 07:35:13;;;;;;;3.40;3.10;;;24.10;49.90;;;;;;5100645;28;20189;-91
2023/07/22 07:37:38;;;;;;;4.33;3.90;;;24.10;49.80;;;;;;5098045;28;20598;-91
2023/07/22 07:40:05;;;;;;;3.87;3.40;;;24.20;49.70;;;;;;5096668;28;20183;-91
2023/07/22 07:42:31;;;;;;;3.60;3.30;;;24.20;49.60;;;;;;5101162;28;20178;-91
2023/07/22 07:44:56;;;;;;;3.40;3.10;;;24.30;49.80;;;;;;5099239;28;20179;-91
2023/07/22 07:47:22;;;;;;;4.93;3.40;;;24.40;49.70;;;;;;5101328;28;20334;-90
2023/07/22 07:49:50;;;;;;;3.60;3.30;;;24.40;49.50;;;;;;5100531;28;20190;-91
2023/07/22 07:52:16;;;;;;;4.40;4.00;;;24.50;49.50;;;;;;5100641;28;20175;-91
2023/07/22 07:54:42;;;;;;;4.50;3.80;;;24.50;49.50;;;;;;5100902;28;20170;-90
2023/07/22 07:57:08;;;;;;;4.87;4.00;;;24.60;49.50;;;;;;5101621;28;20174;-90
2023/07/22 07:59:33;;;;;;;4.90;3.33;;;24.70;49.40;;;;;;5100720;28;20586;-90
2023/07/22 08:01:59;;;;;;;3.63;3.33;;;24.70;49.30;;;;;;5102169;28;20285;-90
2023/07/22 08:04:25;;;;;;;4.57;4.17;;;24.80;49.40;;;;;;5098429;28;20206;-91
2023/07/22 08:06:51;;;;;;;3.97;3.43;;;24.90;49.10;;;;;;5097205;28;20570;-90
2023/07/22 08:09:19;;;;;;;3.87;3.47;;;24.90;49.20;;;;;;5098638;28;20176;-91
2023/07/22 08:11:45;;;;;;;3.83;3.43;;;25.00;49.00;;;;;;5095680;28;20183;-91
2023/07/22 08:14:11;;;;;;;5.17;3.83;;;25.10;49.00;;;;;;5097763;28;20182;-91
2023/07/22 08:16:37;;;;;;;4.00;3.60;;;25.10;48.90;;;;;;5096205;28;20174;-91
2023/07/22 08:19:04;;;;;;;4.30;3.30;;;25.20;48.80;;;;;;5095769;28;20565;-91
2023/07/22 08:21:29;;;;;;;3.53;3.10;;;25.40;48.90;;;;;;5099759;28;20239;-90
2023/07/22 08:23:55;;;;;;;3.90;3.50;;;25.50;48.70;;;;;;5099947;28;20446;-90
2023/07/22 08:26:21;;;;;;;3.75;3.33;;;25.60;48.40;;;;;;5097385;28;20174;-91
2023/07/22 08:28:47;;;;;;;4.10;3.60;;;25.70;48.50;;;;;;5101113;28;20174;-90
2023/07/22 08:31:13;;;;;;;5.15;3.75;;;25.80;48.50;;;;;;5100468;28;20188;-90
2023/07/22 08:33:39;;;;;;;3.80;3.10;;;25.80;48.40;;;;;;5097851;28;20194;-91
2023/07/22 08:36:05;;;;;;;4.38;3.55;;;25.80;48.40;;;;;;5108861;28;20381;-90
2023/07/22 08:38:31;;;;;;;4.32;3.85;;;25.80;48.40;;;;;;5098867;28;20183;-91
2023/07/22 08:40:56;;;;;;;3.95;3.55;;;25.70;47.90;;;;;;5100606;28;20227;-90
2023/07/22 08:43:22;;;;;;;5.18;4.18;;;25.70;48.40;;;;;;5096686;28;20495;-91
2023/07/22 08:45:52;;;;;;;4.28;3.53;;;25.70;48.50;;;;;;5100531;28;20170;-91
2023/07/22 08:48:18;;;;;;;4.68;4.18;;;25.80;48.30;;;;;;5097198;28;20338;-90
2023/07/22 08:51:04;;;;;;;6.82;3.70;;;25.90;48.40;;;;;;5095281;28;20179;-90
2023/07/22 08:53:33;;;;;;;4.55;3.80;;;25.90;48.30;;;;;;5102223;28;20217;-91
2023/07/22 08:55:59;;;;;;;5.03;3.92;;;26.00;48.40;;;;;;5098780;28;20182;-91
2023/07/22 08:58:26;;;;;;;4.18;3.78;;;26.00;48.30;;;;;;5098249;28;20516;-91
2023/07/22 09:00:52;;;;;;;4.93;3.70;;;26.10;48.30;;;;;;5096816;28;20182;-91
2023/07/22 09:03:19;;;;;;;4.85;3.60;;;26.00;48.80;;;;;;5098455;28;20296;-90
2023/07/22 09:05:46;;;;;;;4.18;3.47;;;26.10;48.90;;;;;;5098404;28;20179;-90
2023/07/22 09:08:12;;;;;;;4.45;3.80;;;26.10;48.30;;;;;;5097471;28;20181;-91
2023/07/22 09:10:38;;;;;;;6.03;3.75;;;26.20;48.40;;;;;;5096948;28;20182;-90
2023/07/22 09:13:07;;;;;;;4.47;3.80;;;26.20;48.40;;;;;;5096075;28;20192;-93
2023/07/22 09:15:36;;;;;;;5.03;3.78;;;26.20;48.50;;;;;;5097652;28;20178;-90
2023/07/22 09:18:05;;;;;;;4.72;3.78;;;26.30;48.40;;;;;;5094618;28;20198;-90
2023/07/22 09:20:31;;;;;;;5.07;3.80;;;26.20;48.50;;;;;;5099540;28;20209;-89
2023/07/22 09:22:58;;;;;;;4.80;3.58;;;26.30;48.50;;;;;;5093503;28;20199;-91
2023/07/22 09:25:28;;;;;;;12.25;4.15;;;26.30;48.40;;;;;;5098875;28;20174;-88
2023/07/22 09:27:58;;;;;;;4.68;4.00;;;26.40;48.50;;;;;;5096744;28;20550;-88
2023/07/22 09:30:30;;;;;;;7.28;4.00;;;26.40;48.40;;;;;;5097657;28;20262;-88
2023/07/22 09:32:59;;;;;;;5.75;4.10;;;26.40;48.40;;;;;;5104902;28;20227;-89
2023/07/22 09:35:31;;;;;;;4.38;3.58;;;26.40;48.40;;;;;;5091651;28;20579;-88
2023/07/22 09:37:58;;;;;;;5.72;4.00;;;26.40;48.40;;;;;;5094003;28;20182;-88
2023/07/22 09:40:26;;;;;;;7.35;4.13;;;26.30;48.50;;;;;;5097010;28;20178;-88
2023/07/22 09:42:56;;;;;;;5.05;3.78;;;26.30;48.50;;;;;;5094657;28;20218;-88
2023/07/22 09:45:24;;;;;;;4.55;4.10;;;26.30;48.50;;;;;;5093629;28;20185;-87
2023/07/22 09:47:52;;;;;;;5.90;4.17;;;26.20;48.50;;;;;;5095072;28;20420;-88
2023/07/22 09:50:19;;;;;;;7.57;4.77;;;26.30;48.60;;;;;;5096789;28;20236;-87
2023/07/22 09:52:47;;;;;;;6.75;4.10;;;26.20;48.40;;;;;;5094232;28;20417;-87
2023/07/22 09:55:15;;;;;;;5.03;4.03;;;26.20;48.40;;;;;;5097589;28;20364;-87
2023/07/22 09:57:45;;;;;;;4.50;4.10;;;26.20;48.40;;;;;;5096048;28;20321;-88
2023/07/22 10:00:14;;;;;;;5.30;4.30;;;26.20;48.50;;;;;;5099096;28;20174;-88
2023/07/22 10:02:42;;;;;;;5.93;4.50;;;26.30;48.50;;;;;;5095072;28;20181;-87
2023/07/22 10:05:17;;;;;;;4.72;3.88;;;26.30;48.40;;;;;;5097932;28;20178;-88
2023/07/22 10:07:51;;;;;;;4.93;4.07;;;26.30;48.40;;;;;;5097785;28;20203;-87
2023/07/22 10:10:18;;;;;;;5.30;4.33;;;26.30;48.40;;;;;;5099972;28;20455;-88
2023/07/22 10:12:45;;;;;;;5.17;3.93;;;26.30;48.20;;;;;;5099679;28;20226;-88
2023/07/22 10:15:13;;;;;;;4.23;3.83;;;26.30;48.20;;;;;;5094839;28;20174;-87
2023/07/22 10:17:41;;;;;;;6.23;3.97;;;26.30;48.30;;;;;;5097919;28;20189;-88
2023/07/22 10:20:15;;;;;;;6.43;4.27;;;26.20;48.20;;;;;;5094083;28;20269;-89
2023/07/22 10:22:45;;;;;;;6.50;4.30;;;26.20;48.10;;;;;;5093489;28;20170;-88
2023/07/22 10:25:15;;;;;;;3.83;3.53;;;26.20;48.20;;;;;;5102466;28;20375;-88
2023/07/22 10:27:44;;;;;;;4.77;3.70;;;26.30;48.50;;;;;;5100321;28;20171;-87
2023/07/22 10:30:16;;;;;;;5.43;4.03;;;26.30;48.30;;;;;;5098023;28;20175;-87
2023/07/22 10:32:47;;;;;;;4.70;3.80;;;26.40;48.40;;;;;;5100522;28;20209;-87
2023/07/22 10:35:31;;;;;;;4.40;4.00;;;26.40;48.50;;;;;;5099752;28;20206;-87
2023/07/22 10:38:12;;;;;;;4.33;3.63;;;26.40;48.40;;;;;;5110395;27;20185;-88
2023/07/22 10:40:55;;;;;;;4.70;3.70;;;26.40;48.50;;;;;;5098765;28;20174;-87
2023/07/22 10:43:30;;;;;;;4.30;3.90;;;26.40;48.50;;;;;;5097212;28;20202;-87
2023/07/22 10:45:58;;;;;;;4.30;3.53;;;26.50;48.40;;;;;;5107071;28;20196;-87
2023/07/22 10:48:37;;;;;;;4.17;3.73;;;26.50;48.40;;;;;;5097719;28;20667;-87
2023/07/22 10:51:17;;;;;;;5.73;3.77;;;26.40;48.30;;;;;;5103889;28;20339;-88
2023/07/22 10:53:48;;;;;;;4.77;4.10;;;26.40;48.40;;;;;;5098167;28;20188;-89
2023/07/22 10:56:19;;;;;;;4.87;3.67;;;26.40;48.40;;;;;;5097151;28;20183;-90
2023/07/22 10:58:48;;;;;;;4.00;3.60;;;26.40;48.60;;;;;;5101531;28;20570;-90
2023/07/22 11:01:29;;;;;;;3.90;3.50;;;26.40;48.00;;;;;;5100915;28;20187;-89
2023/07/22 11:04:13;;;;;;;4.20;3.80;;;26.40;48.20;;;;;;5098613;28;20202;-89
2023/07/22 11:06:47;;;;;;;4.77;3.67;;;26.40;48.10;;;;;;5115301;27;20175;-90
2023/07/22 11:09:34;;;;;;;6.53;4.00;;;26.40;48.30;;;;;;5097020;28;20185;-89
2023/07/22 11:12:04;;;;;;;4.80;4.00;;;26.40;48.20;;;;;;5100648;28;20526;-89
2023/07/22 11:15:10;;;;;;;4.68;3.75;;;26.40;48.30;;;;;;5099980;28;20165;-88
2023/07/22 11:17:37;;;;;;;4.73;3.30;;;26.40;48.40;;;;;;5097695;28;20178;-89
2023/07/22 11:20:03;;;;;;;6.27;3.90;;;26.50;48.30;;;;;;5096696;28;20261;-88
2023/07/22 11:22:31;;;;;;;6.07;3.50;;;26.50;48.30;;;;;;5098765;28;20184;-88
2023/07/22 11:25:28;;;;;;;4.43;3.33;;;26.50;48.30;;;;;;5095429;28;20535;-87
2023/07/22 11:27:57;;;;;;;3.60;3.30;;;26.40;48.40;;;;;;5095821;28;20345;-88
2023/07/22 11:30:24;;;;;;;5.23;3.30;;;26.40;48.40;;;;;;5096653;28;20182;-88
2023/07/22 11:32:50;;;;;;;4.63;3.80;;;26.40;48.40;;;;;;5100284;28;20219;-88
2023/07/22 11:35:17;;;;;;;4.73;3.27;;;26.50;48.40;;;;;;5100472;28;20197;-88
2023/07/22 11:37:42;;;;;;;4.17;3.33;;;26.50;48.40;;;;;;5099891;28;20543;-89
2023/07/22 11:40:12;;;;;;;3.63;3.30;;;26.50;48.40;;;;;;5106680;28;20222;-88
2023/07/22 11:42:38;;;;;;;4.90;3.30;;;26.50;48.70;;;;;;5106212;28;20257;-89
2023/07/22 11:45:05;;;;;;;3.70;3.20;;;26.50;48.10;;;;;;5101604;28;20281;-88
2023/07/22 11:47:37;;;;;;;3.40;3.10;;;26.50;48.30;;;;;;5101609;28;20452;-87
2023/07/22 11:50:04;;;;;;;4.33;3.23;;;26.50;48.20;;;;;;5103440;28;20208;-88
2023/07/22 11:52:30;;;;;;;3.43;2.90;;;26.50;48.30;;;;;;5101610;28;20179;-87
2023/07/22 11:55:03;;;;;;;3.40;3.10;;;26.50;48.20;;;;;;5102078;28;20193;-89
2023/07/22 11:57:28;;;;;;;4.67;3.03;;;26.50;48.20;;;;;;5103371;28;20209;-88
2023/07/22 11:59:56;;;;;;;3.63;2.57;;;26.50;48.20;;;;;;5099785;28;20225;-88
2023/07/22 12:02:28;;;;;;;4.10;2.77;;;26.60;48.10;;;;;;5100121;28;20269;-88
2023/07/22 12:05:02;;;;;;;3.77;2.80;;;26.60;48.10;;;;;;5100887;28;20221;-89
2023/07/22 12:07:33;;;;;;;4.63;2.90;;;26.60;48.00;;;;;;5100778;28;20175;-89
2023/07/22 12:10:00;;;;;;;2.77;2.50;;;26.60;48.00;;;;;;5097362;28;20240;-88
2023/07/22 12:12:37;;;;;;;3.80;2.80;;;26.50;48.10;;;;;;5095857;28;20179;-88
2023/07/22 12:15:17;;;;;;;4.27;3.10;;;26.60;48.20;;;;;;5097064;28;20267;-87
2023/07/22 12:17:53;;;;;;;3.33;2.63;;;26.60;48.20;;;;;;5094787;28;20182;-88
2023/07/22 12:20:22;;;;;;;2.93;2.63;;;26.60;48.20;;;;;;5095772;28;20178;-88
2023/07/22 12:22:57;;;;;;;3.15;2.40;;;26.60;48.00;;;;;;5097083;28;20297;-88
2023/07/22 12:25:27;;;;;;;3.00;2.70;;;26.60;48.10;;;;;;5098176;28;20178;-88
2023/07/22 12:27:52;;;;;;;4.03;3.00;;;26.60;48.00;;;;;;5097730;28;20174;-89
2023/07/22 12:30:18;;;;;;;3.87;2.87;;;26.70;48.00;;;;;;5098788;28;20270;-89
2023/07/22 12:32:44;;;;;;;5.03;2.87;;;26.70;48.00;;;;;;5095391;28;20218;-89
2023/07/22 12:35:10;;;;;;;2.87;2.37;;;26.60;48.10;;;;;;5098754;28;20222;-89
2023/07/22 12:37:36;;;;;;;2.67;2.43;;;26.70;47.90;;;;;;5104239;28;20440;-89
2023/07/22 12:40:05;;;;;;;2.80;2.30;;;26.70;48.10;;;;;;5099548;28;20520;-89
2023/07/22 12:42:31;;;;;;;2.87;2.40;;;26.70;48.10;;;;;;5093199;28;20410;-90
2023/07/22 12:44:57;;;;;;;2.90;2.63;;;26.70;48.10;;;;;;5095235;28;20281;-91
2023/07/22 12:47:25;;;;;;;3.33;2.83;;;26.70;48.20;;;;;;5100352;28;20474;-88
2023/07/22 12:49:54;;;;;;;3.30;2.30;;;26.70;48.00;;;;;;5095774;28;20175;-87